sensor_id;sensor_type;location;lat;lon;timestamp;pressure;altitude;pressure_sealevel;temperature;humidity
38780;BME280;29273;49.962;9.768;2023-12-20T00:02:12;99719.25;;;8.74;65.30
38780;BME280;29273;49.962;9.768;2023-12-20T00:04:38;99712.19;;;8.75;65.12
38780;BME280;29273;49.962;9.768;2023-12-20T00:07:03;99713.78;;;8.76;65.10
38780;BME280;29273;49.962;9.768;2023-12-20T00:09:29;99704.06;;;8.76;65.03
38780;BME280;29273;49.962;9.768;2023-12-20T00:11:55;99712.78;;;8.77;64.93
38780;BME280;29273;49.962;9.768;2023-12-20T00:14:20;99703.22;;;8.76;64.71
38780;BME280;29273;49.962;9.768;2023-12-20T00:16:46;99706.91;;;8.75;64.82
38780;BME280;29273;49.962;9.768;2023-12-20T00:19:12;99705.69;;;8.77;64.80
38780;BME280;29273;49.962;9.768;2023-12-20T00:21:37;99699.78;;;8.75;64.72
38780;BME280;29273;49.962;9.768;2023-12-20T00:24:03;99707.69;;;8.75;64.61
38780;BME280;29273;49.962;9.768;2023-12-20T00:26:29;99698.31;;;8.73;64.56
38780;BME280;29273;49.962;9.768;2023-12-20T00:28:54;99695.91;;;8.71;64.55
38780;BME280;29273;49.962;9.768;2023-12-20T00:31:20;99694.25;;;8.70;64.59
38780;BME280;29273;49.962;9.768;2023-12-20T00:33:45;99686.72;;;8.67;64.45
38780;BME280;29273;49.962;9.768;2023-12-20T00:36:12;99677.81;;;8.68;64.33
38780;BME280;29273;49.962;9.768;2023-12-20T00:38:37;99673.72;;;8.65;64.24
38780;BME280;29273;49.962;9.768;2023-12-20T00:41:03;99665.97;;;8.64;64.45
38780;BME280;29273;49.962;9.768;2023-12-20T00:43:29;99669.47;;;8.64;64.35
38780;BME280;29273;49.962;9.768;2023-12-20T00:45:54;99664.38;;;8.63;64.06
38780;BME280;29273;49.962;9.768;2023-12-20T00:48:21;99664.97;;;8.65;64.28
38780;BME280;29273;49.962;9.768;2023-12-20T00:50:46;99666.16;;;8.62;64.29
38780;BME280;29273;49.962;9.768;2023-12-20T00:53:12;99663.53;;;8.62;64.24
38780;BME280;29273;49.962;9.768;2023-12-20T00:55:37;99666.16;;;8.62;64.27
38780;BME280;29273;49.962;9.768;2023-12-20T00:58:03;99662.91;;;8.60;64.18
38780;BME280;29273;49.962;9.768;2023-12-20T01:00:28;99657.63;;;8.60;64.01
38780;BME280;29273;49.962;9.768;2023-12-20T01:02:54;99653.34;;;8.59;63.84
38780;BME280;29273;49.962;9.768;2023-12-20T01:05:19;99650.09;;;8.57;63.70
38780;BME280;29273;49.962;9.768;2023-12-20T01:07:48;99652.53;;;8.59;64.04
38780;BME280;29273;49.962;9.768;2023-12-20T01:10:14;99651.75;;;8.58;63.84
38780;BME280;29273;49.962;9.768;2023-12-20T01:12:40;99649.47;;;8.55;63.75
38780;BME280;29273;49.962;9.768;2023-12-20T01:15:05;99645.19;;;8.54;63.87
38780;BME280;29273;49.962;9.768;2023-12-20T01:17:31;99641.75;;;8.54;63.96
38780;BME280;29273;49.962;9.768;2023-12-20T01:19:56;99644.56;;;8.52;63.50
38780;BME280;29273;49.962;9.768;2023-12-20T01:22:22;99634.03;;;8.52;63.83
38780;BME280;29273;49.962;9.768;2023-12-20T01:24:47;99635.03;;;8.51;63.86
38780;BME280;29273;49.962;9.768;2023-12-20T01:27:13;99628.31;;;8.48;63.57
38780;BME280;29273;49.962;9.768;2023-12-20T01:29:38;99627.13;;;8.51;63.88
38780;BME280;29273;49.962;9.768;2023-12-20T01:32:04;99637.88;;;8.49;63.83
38780;BME280;29273;49.962;9.768;2023-12-20T01:34:29;99636.03;;;8.50;63.84
38780;BME280;29273;49.962;9.768;2023-12-20T01:36:55;99632.59;;;8.49;63.78
38780;BME280;29273;49.962;9.768;2023-12-20T01:39:20;99632.41;;;8.51;63.83
38780;BME280;29273;49.962;9.768;2023-12-20T01:41:46;99633.22;;;8.51;63.73
38780;BME280;29273;49.962;9.768;2023-12-20T01:44:11;99634.81;;;8.52;64.11
38780;BME280;29273;49.962;9.768;2023-12-20T01:46:37;99628.75;;;8.52;63.90
38780;BME280;29273;49.962;9.768;2023-12-20T01:49:03;99630.19;;;8.55;63.95
38780;BME280;29273;49.962;9.768;2023-12-20T01:51:28;99632.00;;;8.54;64.01
38780;BME280;29273;49.962;9.768;2023-12-20T01:53:56;99632.22;;;8.59;64.40
38780;BME280;29273;49.962;9.768;2023-12-20T01:56:23;99632.66;;;8.56;64.42
38780;BME280;29273;49.962;9.768;2023-12-20T01:58:49;99627.38;;;8.56;64.48
38780;BME280;29273;49.962;9.768;2023-12-20T02:01:15;99624.31;;;8.59;64.34
38780;BME280;29273;49.962;9.768;2023-12-20T02:03:41;99623.31;;;8.60;64.31
38780;BME280;29273;49.962;9.768;2023-12-20T02:06:07;99622.50;;;8.60;64.42
38780;BME280;29273;49.962;9.768;2023-12-20T02:08:34;99627.59;;;8.61;64.39
38780;BME280;29273;49.962;9.768;2023-12-20T02:10:59;99628.22;;;8.63;64.64
38780;BME280;29273;49.962;9.768;2023-12-20T02:13:25;99636.94;;;8.64;64.38
38780;BME280;29273;49.962;9.768;2023-12-20T02:15:52;99634.31;;;8.64;64.34
38780;BME280;29273;49.962;9.768;2023-12-20T02:18:18;99631.66;;;8.64;64.21
38780;BME280;29273;49.962;9.768;2023-12-20T02:20:43;99632.50;;;8.64;64.45
38780;BME280;29273;49.962;9.768;2023-12-20T02:23:09;99627.00;;;8.66;64.56
38780;BME280;29273;49.962;9.768;2023-12-20T02:25:34;99629.63;;;8.66;64.37
38780;BME280;29273;49.962;9.768;2023-12-20T02:28:01;99622.56;;;8.66;64.37
38780;BME280;29273;49.962;9.768;2023-12-20T02:30:27;99621.34;;;8.69;64.53
38780;BME280;29273;49.962;9.768;2023-12-20T02:32:53;99621.53;;;8.67;64.48
38780;BME280;29273;49.962;9.768;2023-12-20T02:35:19;99618.69;;;8.69;64.37
38780;BME280;29273;49.962;9.768;2023-12-20T02:37:44;99621.34;;;8.69;64.43
38780;BME280;29273;49.962;9.768;2023-12-20T02:40:10;99629.25;;;8.69;64.35
38780;BME280;29273;49.962;9.768;2023-12-20T02:42:36;99626.63;;;8.69;64.50
38780;BME280;29273;49.962;9.768;2023-12-20T02:45:01;99623.97;;;8.69;64.37
38780;BME280;29273;49.962;9.768;2023-12-20T02:47:27;99631.09;;;8.68;64.27
38780;BME280;29273;49.962;9.768;2023-12-20T02:49:53;99640.00;;;8.67;64.41
38780;BME280;29273;49.962;9.768;2023-12-20T02:52:18;99642.44;;;8.69;64.51
38780;BME280;29273;49.962;9.768;2023-12-20T02:54:44;99637.19;;;8.69;64.48
38780;BME280;29273;49.962;9.768;2023-12-20T02:57:09;99638.81;;;8.70;64.26
38780;BME280;29273;49.962;9.768;2023-12-20T02:59:35;99628.44;;;8.68;64.16
38780;BME280;29273;49.962;9.768;2023-12-20T03:02:00;99619.53;;;8.69;63.84
38780;BME280;29273;49.962;9.768;2023-12-20T03:04:26;99627.44;;;8.69;63.97
38780;BME280;29273;49.962;9.768;2023-12-20T03:06:51;99631.91;;;8.69;63.92
38780;BME280;29273;49.962;9.768;2023-12-20T03:09:17;99629.91;;;8.71;63.94
38780;BME280;29273;49.962;9.768;2023-12-20T03:11:42;99633.53;;;8.70;64.47
38780;BME280;29273;49.962;9.768;2023-12-20T03:14:08;99622.97;;;8.70;64.37
38780;BME280;29273;49.962;9.768;2023-12-20T03:16:33;99617.50;;;8.72;64.27
38780;BME280;29273;49.962;9.768;2023-12-20T03:18:58;99616.88;;;8.69;64.41
38780;BME280;29273;49.962;9.768;2023-12-20T03:21:24;99609.78;;;8.70;64.27
38780;BME280;29273;49.962;9.768;2023-12-20T03:23:49;99619.53;;;8.69;64.37
38780;BME280;29273;49.962;9.768;2023-12-20T03:26:15;99614.25;;;8.69;63.72
38780;BME280;29273;49.962;9.768;2023-12-20T03:28:40;99608.97;;;8.69;63.96
38780;BME280;29273;49.962;9.768;2023-12-20T03:31:06;99621.34;;;8.69;64.07
38780;BME280;29273;49.962;9.768;2023-12-20T03:33:31;99629.44;;;8.67;63.92
38780;BME280;29273;49.962;9.768;2023-12-20T03:35:57;99630.28;;;8.68;64.03
38780;BME280;29273;49.962;9.768;2023-12-20T03:38:22;99632.91;;;8.68;64.20
38780;BME280;29273;49.962;9.768;2023-12-20T03:40:50;99632.91;;;8.68;63.96
38780;BME280;29273;49.962;9.768;2023-12-20T03:43:16;99627.63;;;8.68;63.59
38780;BME280;29273;49.962;9.768;2023-12-20T03:45:42;99620.72;;;8.67;63.66
38780;BME280;29273;49.962;9.768;2023-12-20T03:48:07;99627.84;;;8.66;63.81
38780;BME280;29273;49.962;9.768;2023-12-20T03:50:33;99631.28;;;8.67;63.96
38780;BME280;29273;49.962;9.768;2023-12-20T03:52:59;99646.31;;;8.66;63.71
38780;BME280;29273;49.962;9.768;2023-12-20T03:55:24;99633.91;;;8.67;63.88
38780;BME280;29273;49.962;9.768;2023-12-20T03:57:50;99636.56;;;8.67;63.65
38780;BME280;29273;49.962;9.768;2023-12-20T04:00:15;99643.88;;;8.65;63.46
38780;BME280;29273;49.962;9.768;2023-12-20T04:02:41;99640.19;;;8.66;63.67
38780;BME280;29273;49.962;9.768;2023-12-20T04:05:08;99640.41;;;8.64;63.42
38780;BME280;29273;49.962;9.768;2023-12-20T04:07:35;99629.44;;;8.67;63.43
38780;BME280;29273;49.962;9.768;2023-12-20T04:10:01;99617.66;;;8.63;63.40
38780;BME280;29273;49.962;9.768;2023-12-20T04:12:28;99606.09;;;8.64;63.54
38780;BME280;29273;49.962;9.768;2023-12-20T04:14:53;99614.41;;;8.61;63.48
38780;BME280;29273;49.962;9.768;2023-12-20T04:17:19;99619.69;;;8.61;63.57
38780;BME280;29273;49.962;9.768;2023-12-20T04:19:45;99611.94;;;8.60;63.65
38780;BME280;29273;49.962;9.768;2023-12-20T04:22:11;99614.78;;;8.58;63.88
38780;BME280;29273;49.962;9.768;2023-12-20T04:24:36;99623.09;;;8.55;63.79
38780;BME280;29273;49.962;9.768;2023-12-20T04:27:02;99621.06;;;8.57;63.93
38780;BME280;29273;49.962;9.768;2023-12-20T04:29:28;99623.09;;;8.55;63.87
38780;BME280;29273;49.962;9.768;2023-12-20T04:31:53;99631.00;;;8.55;64.06
38780;BME280;29273;49.962;9.768;2023-12-20T04:34:19;99627.75;;;8.53;64.04
38780;BME280;29273;49.962;9.768;2023-12-20T04:36:45;99637.28;;;8.54;64.03
38780;BME280;29273;49.962;9.768;2023-12-20T04:39:11;99652.13;;;8.55;64.49
38780;BME280;29273;49.962;9.768;2023-12-20T04:41:37;99654.75;;;8.55;64.33
38780;BME280;29273;49.962;9.768;2023-12-20T04:44:02;99652.31;;;8.54;64.57
38780;BME280;29273;49.962;9.768;2023-12-20T04:46:28;99654.75;;;8.55;64.63
38780;BME280;29273;49.962;9.768;2023-12-20T04:48:53;99654.13;;;8.53;64.40
38780;BME280;29273;49.962;9.768;2023-12-20T04:51:19;99662.69;;;8.55;64.34
38780;BME280;29273;49.962;9.768;2023-12-20T04:53:44;99667.16;;;8.55;64.53
38780;BME280;29273;49.962;9.768;2023-12-20T04:56:10;99667.16;;;8.55;64.38
38780;BME280;29273;49.962;9.768;2023-12-20T04:58:35;99673.22;;;8.55;64.63
38780;BME280;29273;49.962;9.768;2023-12-20T05:01:01;99669.59;;;8.56;64.61
38780;BME280;29273;49.962;9.768;2023-12-20T05:03:26;99676.88;;;8.54;64.53
38780;BME280;29273;49.962;9.768;2023-12-20T05:05:52;99687.44;;;8.54;64.38
38780;BME280;29273;49.962;9.768;2023-12-20T05:08:17;99692.09;;;8.52;64.40
38780;BME280;29273;49.962;9.768;2023-12-20T05:10:43;99696.38;;;8.53;64.67
38780;BME280;29273;49.962;9.768;2023-12-20T05:13:08;99700.63;;;8.54;64.77
38780;BME280;29273;49.962;9.768;2023-12-20T05:15:34;99694.34;;;8.55;64.91
38780;BME280;29273;49.962;9.768;2023-12-20T05:17:59;99690.06;;;8.54;65.00
38780;BME280;29273;49.962;9.768;2023-12-20T05:20:24;99697.78;;;8.56;64.87
38780;BME280;29273;49.962;9.768;2023-12-20T05:22:50;99700.44;;;8.56;65.15
38780;BME280;29273;49.962;9.768;2023-12-20T05:25:16;99700.25;;;8.57;65.14
38780;BME280;29273;49.962;9.768;2023-12-20T05:27:41;99694.97;;;8.57;65.13
38780;BME280;29273;49.962;9.768;2023-12-20T05:30:07;99700.88;;;8.59;65.22
38780;BME280;29273;49.962;9.768;2023-12-20T05:32:32;99708.59;;;8.61;64.98
38780;BME280;29273;49.962;9.768;2023-12-20T05:34:58;99707.59;;;8.62;65.09
38780;BME280;29273;49.962;9.768;2023-12-20T05:37:23;99708.41;;;8.62;65.06
38780;BME280;29273;49.962;9.768;2023-12-20T05:39:49;99701.31;;;8.63;64.77
38780;BME280;29273;49.962;9.768;2023-12-20T05:42:14;99707.41;;;8.63;64.83
38780;BME280;29273;49.962;9.768;2023-12-20T05:44:40;99709.25;;;8.63;64.75
38780;BME280;29273;49.962;9.768;2023-12-20T05:47:05;99711.69;;;8.64;64.74
38780;BME280;29273;49.962;9.768;2023-12-20T05:49:31;99711.69;;;8.64;64.62
38780;BME280;29273;49.962;9.768;2023-12-20T05:51:56;99715.34;;;8.63;64.37
38780;BME280;29273;49.962;9.768;2023-12-20T05:54:22;99714.13;;;8.66;64.42
38780;BME280;29273;49.962;9.768;2023-12-20T05:56:48;99706.19;;;8.66;64.49
38780;BME280;29273;49.962;9.768;2023-12-20T05:59:13;99719.41;;;8.66;64.47
38780;BME280;29273;49.962;9.768;2023-12-20T06:01:39;99715.75;;;8.67;64.60
38780;BME280;29273;49.962;9.768;2023-12-20T06:04:04;99720.84;;;8.68;64.72
38780;BME280;29273;49.962;9.768;2023-12-20T06:06:30;99733.25;;;8.68;64.78
38780;BME280;29273;49.962;9.768;2023-12-20T06:08:56;99725.75;;;8.72;64.76
38780;BME280;29273;49.962;9.768;2023-12-20T06:11:21;99729.38;;;8.70;64.81
38780;BME280;29273;49.962;9.768;2023-12-20T06:13:47;99728.19;;;8.73;64.82
38780;BME280;29273;49.962;9.768;2023-12-20T06:16:14;99734.09;;;8.75;64.88
38780;BME280;29273;49.962;9.768;2023-12-20T06:18:40;99737.56;;;8.76;64.79
38780;BME280;29273;49.962;9.768;2023-12-20T06:21:05;99742.84;;;8.76;64.96
38780;BME280;29273;49.962;9.768;2023-12-20T06:23:32;99753.19;;;8.77;64.94
38780;BME280;29273;49.962;9.768;2023-12-20T06:25:58;99748.75;;;8.78;65.09
38780;BME280;29273;49.962;9.768;2023-12-20T06:28:23;99755.66;;;8.79;64.93
38780;BME280;29273;49.962;9.768;2023-12-20T06:30:48;99761.13;;;8.77;64.85
38780;BME280;29273;49.962;9.768;2023-12-20T06:33:15;99762.59;;;8.80;64.79
38780;BME280;29273;49.962;9.768;2023-12-20T06:35:40;99766.22;;;8.79;64.72
38780;BME280;29273;49.962;9.768;2023-12-20T06:38:06;99767.06;;;8.79;64.90
38780;BME280;29273;49.962;9.768;2023-12-20T06:40:31;99774.97;;;8.79;64.47
38780;BME280;29273;49.962;9.768;2023-12-20T06:42:57;99780.25;;;8.79;63.96
38780;BME280;29273;49.962;9.768;2023-12-20T06:45:22;99779.41;;;8.79;63.76
38780;BME280;29273;49.962;9.768;2023-12-20T06:47:48;99781.44;;;8.77;63.40
38780;BME280;29273;49.962;9.768;2023-12-20T06:50:13;99776.34;;;8.75;63.10
38780;BME280;29273;49.962;9.768;2023-12-20T06:52:39;99779.38;;;8.72;62.35
38780;BME280;29273;49.962;9.768;2023-12-20T06:55:05;99780.75;;;8.68;61.87
38780;BME280;29273;49.962;9.768;2023-12-20T06:57:30;99779.50;;;8.64;61.11
38780;BME280;29273;49.962;9.768;2023-12-20T06:59:56;99783.34;;;8.61;61.16
38780;BME280;29273;49.962;9.768;2023-12-20T07:02:23;99781.09;;;8.58;61.06
38780;BME280;29273;49.962;9.768;2023-12-20T07:04:48;99781.03;;;8.51;61.27
38780;BME280;29273;49.962;9.768;2023-12-20T07:07:14;99786.66;;;8.48;61.28
38780;BME280;29273;49.962;9.768;2023-12-20T07:09:39;99792.31;;;8.45;61.42
38780;BME280;29273;49.962;9.768;2023-12-20T07:12:08;99807.69;;;8.42;61.38
38780;BME280;29273;49.962;9.768;2023-12-20T07:14:33;99803.59;;;8.39;61.67
38780;BME280;29273;49.962;9.768;2023-12-20T07:16:59;99805.59;;;8.37;61.69
38780;BME280;29273;49.962;9.768;2023-12-20T07:19:24;99801.53;;;8.34;61.54
38780;BME280;29273;49.962;9.768;2023-12-20T07:21:50;99801.72;;;8.33;61.59
38780;BME280;29273;49.962;9.768;2023-12-20T07:24:15;99794.97;;;8.30;61.14
38780;BME280;29273;49.962;9.768;2023-12-20T07:26:41;99790.91;;;8.28;61.30
38780;BME280;29273;49.962;9.768;2023-12-20T07:29:06;99800.00;;;8.25;61.09
38780;BME280;29273;49.962;9.768;2023-12-20T07:31:32;99802.19;;;8.22;60.98
38780;BME280;29273;49.962;9.768;2023-12-20T07:33:58;99806.00;;;8.19;61.45
38780;BME280;29273;49.962;9.768;2023-12-20T07:36:23;99810.84;;;8.15;61.71
38780;BME280;29273;49.962;9.768;2023-12-20T07:38:49;99801.69;;;8.11;61.81
38780;BME280;29273;49.962;9.768;2023-12-20T07:41:14;99804.69;;;8.08;61.84
38780;BME280;29273;49.962;9.768;2023-12-20T07:43:41;99800.59;;;8.06;61.80
38780;BME280;29273;49.962;9.768;2023-12-20T07:46:08;99813.16;;;8.04;61.95
38780;BME280;29273;49.962;9.768;2023-12-20T07:48:36;99810.50;;;8.04;62.08
38780;BME280;29273;49.962;9.768;2023-12-20T07:51:03;99800.69;;;7.97;61.94
38780;BME280;29273;49.962;9.768;2023-12-20T07:53:29;99809.00;;;7.94;61.72
38780;BME280;29273;49.962;9.768;2023-12-20T07:55:55;99818.06;;;7.92;61.68
38780;BME280;29273;49.962;9.768;2023-12-20T07:58:20;99822.09;;;7.88;61.80
38780;BME280;29273;49.962;9.768;2023-12-20T08:00:46;99823.28;;;7.85;61.70
38780;BME280;29273;49.962;9.768;2023-12-20T08:03:11;99820.19;;;7.82;61.74
38780;BME280;29273;49.962;9.768;2023-12-20T08:05:38;99829.09;;;7.81;62.09
38780;BME280;29273;49.962;9.768;2023-12-20T08:08:06;99828.63;;;7.77;61.72
38780;BME280;29273;49.962;9.768;2023-12-20T08:10:31;99830.66;;;7.75;61.67
38780;BME280;29273;49.962;9.768;2023-12-20T08:12:57;99826.38;;;7.74;61.70
38780;BME280;29273;49.962;9.768;2023-12-20T08:15:23;99821.09;;;7.74;61.87
38780;BME280;29273;49.962;9.768;2023-12-20T08:17:49;99822.91;;;7.73;62.18
38780;BME280;29273;49.962;9.768;2023-12-20T08:20:16;99828.19;;;7.73;61.86
38780;BME280;29273;49.962;9.768;2023-12-20T08:22:42;99834.28;;;7.74;62.02
38780;BME280;29273;49.962;9.768;2023-12-20T08:25:07;99841.19;;;7.75;62.15
38780;BME280;29273;49.962;9.768;2023-12-20T08:27:38;99844.63;;;7.75;62.13
38780;BME280;29273;49.962;9.768;2023-12-20T08:30:04;99847.72;;;7.79;62.04
38780;BME280;29273;49.962;9.768;2023-12-20T08:32:29;99850.00;;;7.82;62.18
38780;BME280;29273;49.962;9.768;2023-12-20T08:34:55;99850.44;;;7.86;62.16
38780;BME280;29273;49.962;9.768;2023-12-20T08:37:20;99850.72;;;7.91;62.35
38780;BME280;29273;49.962;9.768;2023-12-20T08:39:45;99849.38;;;7.95;62.20
38780;BME280;29273;49.962;9.768;2023-12-20T08:42:11;99855.25;;;7.97;62.06
38780;BME280;29273;49.962;9.768;2023-12-20T08:44:36;99871.72;;;7.99;61.25
38780;BME280;29273;49.962;9.768;2023-12-20T08:47:02;99868.09;;;8.00;61.41
38780;BME280;29273;49.962;9.768;2023-12-20T08:49:28;99865.09;;;8.03;61.30
38780;BME280;29273;49.962;9.768;2023-12-20T08:51:53;99857.00;;;8.05;61.83
38780;BME280;29273;49.962;9.768;2023-12-20T08:54:19;99846.88;;;8.08;62.07
38780;BME280;29273;49.962;9.768;2023-12-20T08:56:45;99850.78;;;8.12;61.71
38780;BME280;29273;49.962;9.768;2023-12-20T08:59:12;99856.31;;;8.18;61.51
38780;BME280;29273;49.962;9.768;2023-12-20T09:01:37;99849.06;;;8.20;61.51
38780;BME280;29273;49.962;9.768;2023-12-20T09:04:03;99843.88;;;8.26;61.55
38780;BME280;29273;49.962;9.768;2023-12-20T09:06:28;99843.50;;;8.29;61.40
38780;BME280;29273;49.962;9.768;2023-12-20T09:08:54;99843.94;;;8.33;61.02
38780;BME280;29273;49.962;9.768;2023-12-20T09:11:19;99852.09;;;8.38;61.54
38780;BME280;29273;49.962;9.768;2023-12-20T09:13:45;99848.25;;;8.41;60.87
38780;BME280;29273;49.962;9.768;2023-12-20T09:16:10;99843.50;;;8.44;61.49
38780;BME280;29273;49.962;9.768;2023-12-20T09:18:36;99855.47;;;8.47;61.07
38780;BME280;29273;49.962;9.768;2023-12-20T09:21:02;99849.84;;;8.50;60.73
38780;BME280;29273;49.962;9.768;2023-12-20T09:23:27;99859.00;;;8.54;60.86
38780;BME280;29273;49.962;9.768;2023-12-20T09:25:53;99859.84;;;8.55;60.38
38780;BME280;29273;49.962;9.768;2023-12-20T09:28:19;99862.09;;;8.58;60.20
38780;BME280;29273;49.962;9.768;2023-12-20T09:30:44;99871.28;;;8.62;60.45
38780;BME280;29273;49.962;9.768;2023-12-20T09:33:12;99873.72;;;8.63;60.24
38780;BME280;29273;49.962;9.768;2023-12-20T09:35:37;99865.63;;;8.65;60.10
38780;BME280;29273;49.962;9.768;2023-12-20T09:38:03;99862.78;;;8.66;60.14
38780;BME280;29273;49.962;9.768;2023-12-20T09:40:32;99865.31;;;8.75;61.06
38780;BME280;29273;49.962;9.768;2023-12-20T09:43:03;99874.84;;;8.76;61.21
38780;BME280;29273;49.962;9.768;2023-12-20T09:45:30;99862.50;;;8.76;61.18
38780;BME280;29273;49.962;9.768;2023-12-20T09:47:57;99868.22;;;8.80;60.91
38780;BME280;29273;49.962;9.768;2023-12-20T09:50:23;99873.31;;;8.81;60.75
38780;BME280;29273;49.962;9.768;2023-12-20T09:52:51;99866.81;;;8.84;60.34
38780;BME280;29273;49.962;9.768;2023-12-20T09:55:17;99866.44;;;8.87;60.21
38780;BME280;29273;49.962;9.768;2023-12-20T09:57:44;99860.16;;;8.88;60.21
38780;BME280;29273;49.962;9.768;2023-12-20T10:00:10;99858.13;;;8.90;60.42
38780;BME280;29273;49.962;9.768;2023-12-20T10:02:44;99867.97;;;8.96;60.90
38780;BME280;29273;49.962;9.768;2023-12-20T10:05:15;99859.66;;;8.99;61.32
38780;BME280;29273;49.962;9.768;2023-12-20T10:07:41;99865.94;;;8.98;60.29
38780;BME280;29273;49.962;9.768;2023-12-20T10:10:07;99864.72;;;9.01;59.80
38780;BME280;29273;49.962;9.768;2023-12-20T10:12:34;99857.44;;;9.03;60.09
38780;BME280;29273;49.962;9.768;2023-12-20T10:14:59;99867.66;;;9.06;60.73
38780;BME280;29273;49.962;9.768;2023-12-20T10:17:27;99856.28;;;9.12;60.42
38780;BME280;29273;49.962;9.768;2023-12-20T10:19:54;99842.09;;;9.13;60.49
38780;BME280;29273;49.962;9.768;2023-12-20T10:22:19;99849.63;;;9.16;60.33
38780;BME280;29273;49.962;9.768;2023-12-20T10:24:45;99840.50;;;9.19;60.29
38780;BME280;29273;49.962;9.768;2023-12-20T10:27:11;99833.84;;;9.23;59.98
38780;BME280;29273;49.962;9.768;2023-12-20T10:29:37;99835.25;;;9.25;60.39
38780;BME280;29273;49.962;9.768;2023-12-20T10:32:23;99839.16;;;9.30;59.97
38780;BME280;29273;49.962;9.768;2023-12-20T10:34:50;99845.44;;;9.29;59.30
38780;BME280;29273;49.962;9.768;2023-12-20T10:37:16;99833.88;;;9.30;59.46
38780;BME280;29273;49.962;9.768;2023-12-20T10:39:42;99823.13;;;9.31;59.57
38780;BME280;29273;49.962;9.768;2023-12-20T10:42:10;99826.38;;;9.33;59.67
38780;BME280;29273;49.962;9.768;2023-12-20T10:44:36;99822.09;;;9.32;59.29
38780;BME280;29273;49.962;9.768;2023-12-20T10:47:03;99812.78;;;9.36;60.30
38780;BME280;29273;49.962;9.768;2023-12-20T10:49:30;99816.63;;;9.34;59.52
38780;BME280;29273;49.962;9.768;2023-12-20T10:51:56;99812.78;;;9.36;59.72
38780;BME280;29273;49.962;9.768;2023-12-20T10:54:25;99809.31;;;9.36;59.47
38780;BME280;29273;49.962;9.768;2023-12-20T10:56:51;99804.47;;;9.39;59.68
38780;BME280;29273;49.962;9.768;2023-12-20T10:59:19;99805.88;;;9.42;60.04
38780;BME280;29273;49.962;9.768;2023-12-20T11:01:46;99804.88;;;9.43;60.46
38780;BME280;29273;49.962;9.768;2023-12-20T11:04:16;99811.78;;;9.44;60.00
38780;BME280;29273;49.962;9.768;2023-12-20T11:06:51;99805.09;;;9.41;59.25
38780;BME280;29273;49.962;9.768;2023-12-20T11:09:31;99811.19;;;9.42;59.35
38780;BME280;29273;49.962;9.768;2023-12-20T11:12:24;99811.75;;;9.37;60.24
38780;BME280;29273;49.962;9.768;2023-12-20T11:14:54;99811.75;;;9.37;59.56
38780;BME280;29273;49.962;9.768;2023-12-20T11:17:22;99796.91;;;9.36;59.41
38780;BME280;29273;49.962;9.768;2023-12-20T11:22:17;99808.09;;;9.38;59.38
38780;BME280;29273;49.962;9.768;2023-12-20T11:24:44;99812.41;;;9.39;59.61
38780;BME280;29273;49.962;9.768;2023-12-20T11:27:10;99803.81;;;9.37;58.77
38780;BME280;29273;49.962;9.768;2023-12-20T11:29:37;99802.44;;;9.41;59.37
38780;BME280;29273;49.962;9.768;2023-12-20T11:34:56;99794.50;;;9.41;59.15
38780;BME280;29273;49.962;9.768;2023-12-20T11:37:29;99790.66;;;9.44;59.78
38780;BME280;29273;49.962;9.768;2023-12-20T11:39:56;99793.25;;;9.37;57.69
38780;BME280;29273;49.962;9.768;2023-12-20T11:42:22;99790.22;;;9.40;57.92
38780;BME280;29273;49.962;9.768;2023-12-20T11:44:47;99784.13;;;9.40;58.56
38780;BME280;29273;49.962;9.768;2023-12-20T11:47:13;99784.94;;;9.40;58.36
38780;BME280;29273;49.962;9.768;2023-12-20T11:49:41;99780.69;;;9.39;57.87
38780;BME280;29273;49.962;9.768;2023-12-20T11:52:06;99772.75;;;9.39;57.75
38780;BME280;29273;49.962;9.768;2023-12-20T11:54:32;99768.09;;;9.41;58.28
38780;BME280;29273;49.962;9.768;2023-12-20T11:56:57;99766.06;;;9.43;58.20
38780;BME280;29273;49.962;9.768;2023-12-20T11:59:23;99770.94;;;9.47;58.16
38780;BME280;29273;49.962;9.768;2023-12-20T12:01:49;99752.84;;;9.43;56.68
38780;BME280;29273;49.962;9.768;2023-12-20T12:04:15;99756.72;;;9.48;57.10
38780;BME280;29273;49.962;9.768;2023-12-20T12:06:43;99751.88;;;9.51;57.31
38780;BME280;29273;49.962;9.768;2023-12-20T12:09:08;99763.88;;;9.54;57.21
38780;BME280;29273;49.962;9.768;2023-12-20T12:11:34;99749.66;;;9.55;57.25
38780;BME280;29273;49.962;9.768;2023-12-20T12:14:00;99758.00;;;9.58;57.21
38780;BME280;29273;49.962;9.768;2023-12-20T12:16:26;99761.06;;;9.62;57.13
38780;BME280;29273;49.962;9.768;2023-12-20T12:18:58;99745.22;;;9.69;58.42
38780;BME280;29273;49.962;9.768;2023-12-20T12:21:24;99742.78;;;9.67;56.65
38780;BME280;29273;49.962;9.768;2023-12-20T12:23:50;99754.38;;;9.66;55.61
38780;BME280;29273;49.962;9.768;2023-12-20T12:26:16;99753.16;;;9.69;56.18
38780;BME280;29273;49.962;9.768;2023-12-20T12:28:41;99745.22;;;9.69;56.02
38780;BME280;29273;49.962;9.768;2023-12-20T12:31:08;99754.78;;;9.70;55.94
38780;BME280;29273;49.962;9.768;2023-12-20T12:33:34;99745.03;;;9.70;55.63
38780;BME280;29273;49.962;9.768;2023-12-20T12:36:01;99747.88;;;9.69;55.17
38780;BME280;29273;49.962;9.768;2023-12-20T12:38:26;99756.00;;;9.67;54.61
38780;BME280;29273;49.962;9.768;2023-12-20T12:40:54;99762.31;;;9.66;54.52
38780;BME280;29273;49.962;9.768;2023-12-20T12:43:20;99754.19;;;9.68;55.71
38780;BME280;29273;49.962;9.768;2023-12-20T12:45:45;99743.81;;;9.66;55.49
38780;BME280;29273;49.962;9.768;2023-12-20T12:48:11;99749.28;;;9.65;54.91
38780;BME280;29273;49.962;9.768;2023-12-20T12:50:36;99746.44;;;9.66;55.53
38780;BME280;29273;49.962;9.768;2023-12-20T12:53:02;99750.91;;;9.66;55.06
38780;BME280;29273;49.962;9.768;2023-12-20T12:55:28;99740.31;;;9.66;54.78
38780;BME280;29273;49.962;9.768;2023-12-20T12:57:54;99758.44;;;9.69;55.44
38780;BME280;29273;49.962;9.768;2023-12-20T13:00:20;99755.59;;;9.70;54.61
38780;BME280;29273;49.962;9.768;2023-12-20T13:02:45;99755.00;;;9.68;54.62
38780;BME280;29273;49.962;9.768;2023-12-20T13:05:11;99747.06;;;9.68;54.84
38780;BME280;29273;49.962;9.768;2023-12-20T13:07:36;99747.88;;;9.69;54.60
38780;BME280;29273;49.962;9.768;2023-12-20T13:10:03;99743.59;;;9.68;54.35